Time;durP1;ratioP1;P1;durP2;ratioP2;P2;SDS_P1;SDS_P2;PMS_P1;PMS_P2;Temp;Humidity;BMP_temperature;BMP_pressure;BME280_temperature;BME280_humidity;BME280_pressure;Samples;Min_cycle;Max_cycle;Signal;HPM_P1;HPM_P2
2023/11/23 00:01:42;;;;;;;15.25;5.70;;;;;;;9.91;100.00;100920.75;5008121;28;20073;-71
2023/11/23 00:04:07;;;;;;;24.90;6.45;;;;;;;9.87;100.00;100908.56;5010455;28;20064;-69
2023/11/23 00:06:33;;;;;;;22.70;7.50;;;;;;;9.85;100.00;100905.00;5010763;28;20034;-70
2023/11/23 00:08:58;;;;;;;25.48;8.18;;;;;;;9.90;100.00;100918.13;5010313;28;20084;-70
2023/11/23 00:11:24;;;;;;;26.75;7.95;;;;;;;9.77;100.00;100896.91;5010488;28;20479;-70
2023/11/23 00:13:51;;;;;;;24.75;8.15;;;;;;;9.81;100.00;100909.13;5010680;28;20025;-70
2023/11/23 00:16:17;;;;;;;24.65;8.40;;;;;;;9.43;100.00;100854.06;5010714;28;21579;-70
2023/11/23 00:18:43;;;;;;;19.63;7.20;;;;;;;9.80;100.00;100930.56;5008319;28;20499;-69
2023/11/23 00:21:09;;;;;;;29.98;7.10;;;;;;;9.82;100.00;100940.94;5010398;28;20029;-68
2023/11/23 00:23:34;;;;;;;36.92;8.43;;;;;;;9.83;100.00;100934.97;5010111;28;20033;-74
2023/11/23 00:26:03;;;;;;;17.67;5.07;;;;;;;9.84;100.00;100935.09;5013226;28;20468;-69
2023/11/23 00:28:28;;;;;;;10.63;4.40;;;;;;;9.69;100.00;100939.50;5001030;28;20461;-74
2023/11/23 00:30:54;;;;;;;15.45;6.13;;;;;;;9.70;100.00;100956.72;5010286;28;20041;-70
2023/11/23 00:33:20;;;;;;;16.25;4.95;;;;;;;9.68;100.00;100948.03;5009886;28;20095;-71
2023/11/23 00:35:45;;;;;;;11.95;4.82;;;;;;;9.70;100.00;100959.31;5010736;28;20057;-70
2023/11/23 00:38:16;;;;;;;10.88;4.60;;;;;;;9.65;100.00;100951.34;5010159;28;20492;-70
2023/11/23 00:40:42;;;;;;;11.15;4.95;;;;;;;9.49;100.00;100934.25;5010090;28;20032;-68
2023/11/23 00:43:10;;;;;;;14.55;5.35;;;;;;;9.59;100.00;100957.91;5010381;28;20546;-71
2023/11/23 00:45:36;;;;;;;14.98;5.85;;;;;;;9.63;100.00;100959.81;5010065;28;20053;-71
2023/11/23 00:48:02;;;;;;;13.10;4.20;;;;;;;9.65;100.00;100959.06;5010306;28;20488;-70
2023/11/23 00:50:27;;;;;;;9.05;3.92;;;;;;;9.60;100.00;100952.81;5010287;28;20113;-70
2023/11/23 00:52:53;;;;;;;13.95;5.65;;;;;;;9.29;100.00;100897.19;5007129;28;20375;-70
2023/11/23 00:55:20;;;;;;;13.25;4.25;;;;;;;9.68;100.00;100955.75;5009667;28;20029;-68
2023/11/23 00:57:46;;;;;;;11.45;5.68;;;;;;;9.66;100.00;100955.69;5010057;28;20022;-67
2023/11/23 01:00:16;;;;;;;10.40;4.20;;;;;;;9.73;100.00;100967.19;5009072;28;20128;-69
2023/11/23 01:02:43;;;;;;;9.90;4.75;;;;;;;9.77;100.00;100974.28;4997113;28;20463;-71
2023/11/23 01:05:11;;;;;;;13.20;4.82;;;;;;;9.62;100.00;100953.78;5002082;28;20069;-68
2023/11/23 01:07:38;;;;;;;13.02;5.05;;;;;;;9.65;100.00;100974.53;4997933;28;20562;-70
2023/11/23 01:10:05;;;;;;;15.07;5.05;;;;;;;9.65;100.00;100978.84;5010100;28;20083;-71
2023/11/23 01:12:31;;;;;;;9.60;4.40;;;;;;;9.59;100.00;100979.41;5009485;28;20547;-69
2023/11/23 01:14:57;;;;;;;10.25;4.32;;;;;;;9.58;100.00;100972.47;4995333;28;20106;-70
2023/11/23 01:17:22;;;;;;;15.20;5.30;;;;;;;9.52;100.00;100988.53;5009165;28;20113;-70
2023/11/23 01:19:48;;;;;;;14.75;5.20;;;;;;;9.48;100.00;100985.72;5009583;28;20029;-69
2023/11/23 01:22:14;;;;;;;12.63;4.68;;;;;;;9.36;100.00;100957.66;5009382;28;20095;-69
2023/11/23 01:24:39;;;;;;;13.68;4.32;;;;;;;9.01;100.00;100902.66;5009984;28;20029;-70
2023/11/23 01:27:05;;;;;;;17.42;4.60;;;;;;;9.49;100.00;100993.53;5009761;28;20030;-71
2023/11/23 01:29:30;;;;;;;15.40;6.03;;;;;;;9.07;100.00;100918.44;5010068;28;20504;-67
2023/11/23 01:31:55;;;;;;;17.05;5.70;;;;;;;9.42;100.00;100985.41;5007297;28;20033;-70
2023/11/23 01:34:21;;;;;;;22.17;7.05;;;;;;;9.49;100.00;101005.53;5009677;28;20041;-69
2023/11/23 01:36:46;;;;;;;18.67;7.20;;;;;;;9.53;100.00;100990.31;5009392;28;20814;-70
2023/11/23 01:39:12;;;;;;;18.45;6.97;;;;;;;9.51;100.00;100996.19;5008177;28;20029;-69
2023/11/23 01:41:37;;;;;;;14.43;6.45;;;;;;;9.46;100.00;100995.06;5009322;28;20109;-71
2023/11/23 01:44:03;;;;;;;13.27;5.68;;;;;;;9.42;100.00;100995.72;5009278;28;20069;-67
2023/11/23 01:46:28;;;;;;;24.92;7.32;;;;;;;9.32;100.00;100978.91;5009939;28;20029;-74
2023/11/23 01:48:55;;;;;;;22.92;7.88;;;;;;;9.06;100.00;100939.88;5009324;28;20021;-69
2023/11/23 01:51:22;;;;;;;22.48;7.00;;;;;;;8.90;100.00;100918.47;5009382;28;20034;-70
2023/11/23 01:53:48;;;;;;;26.15;8.35;;;;;;;9.30;100.00;100990.84;5008284;28;20029;-69
2023/11/23 01:56:14;;;;;;;28.75;9.30;;;;;;;8.58;100.00;100863.66;5008149;28;20061;-69
2023/11/23 01:58:40;;;;;;;17.30;5.47;;;;;;;9.35;100.00;101004.84;5009297;28;20128;-69
2023/11/23 02:01:06;;;;;;;16.65;5.78;;;;;;;9.23;100.00;100981.91;5009750;28;20423;-69
2023/11/23 02:03:32;;;;;;;16.48;4.75;;;;;;;9.27;100.00;100985.53;5008597;28;20044;-68
2023/11/23 02:05:58;;;;;;;20.17;5.65;;;;;;;9.28;100.00;101000.19;5009279;28;20060;-69
2023/11/23 02:08:23;;;;;;;22.25;5.10;;;;;;;9.38;100.00;101016.19;5011154;28;20041;-67
2023/11/23 02:10:49;;;;;;;27.75;6.43;;;;;;;9.39;100.00;101017.97;5012933;28;20430;-69
2023/11/23 02:13:15;;;;;;;16.85;5.90;;;;;;;9.38;100.00;101021.34;5012350;28;20478;-68
2023/11/23 02:15:40;;;;;;;31.48;6.82;;;;;;;9.41;100.00;101010.31;5012679;28;20026;-69
2023/11/23 02:18:10;;;;;;;30.90;7.22;;;;;;;9.23;100.00;100980.25;5010366;28;20042;-70
2023/11/23 02:20:36;;;;;;;20.42;6.38;;;;;;;9.39;100.00;101011.91;5012564;28;20487;-73
2023/11/23 02:23:01;;;;;;;27.65;7.18;;;;;;;9.38;100.00;101020.44;5012285;28;20037;-70
2023/11/23 02:25:27;;;;;;;19.58;6.05;;;;;;;9.29;100.00;101008.00;5012803;28;20133;-69
2023/11/23 02:27:53;;;;;;;16.15;5.65;;;;;;;8.84;100.00;100935.31;5012659;28;20017;-69
2023/11/23 02:30:22;;;;;;;19.98;6.43;;;;;;;9.35;100.00;101020.31;5012700;28;20036;-67
2023/11/23 02:32:48;;;;;;;15.63;5.95;;;;;;;9.03;100.00;100961.19;5010799;28;20060;-68
2023/11/23 02:35:14;;;;;;;20.70;7.22;;;;;;;9.42;100.00;101027.56;5012935;28;20083;-68
2023/11/23 02:37:40;;;;;;;14.07;6.53;;;;;;;9.43;100.00;101024.16;5011048;28;20033;-69
2023/11/23 02:40:07;;;;;;;17.83;7.75;;;;;;;9.36;100.00;101028.13;5012341;28;20042;-72
2023/11/23 02:42:32;;;;;;;19.90;9.30;;;;;;;9.12;100.00;101014.88;5009461;28;20072;-67
2023/11/23 02:44:58;;;;;;;26.25;10.88;;;;;;;9.20;100.00;101041.91;5012234;28;20680;-74
2023/11/23 02:50:23;;;;;;;30.25;11.57;;;;;;;9.14;100.00;101046.72;5137717;23;20097;-69
2023/11/23 02:52:49;;;;;;;21.67;9.93;;;;;;;9.10;100.00;101056.78;4993186;28;20505;-68
2023/11/23 02:55:14;;;;;;;19.17;8.93;;;;;;;9.07;100.00;101057.50;4991105;28;20520;-69
2023/11/23 02:57:42;;;;;;;21.77;8.43;;;;;;;8.53;100.00;100978.31;4992939;28;20601;-69
2023/11/23 03:00:08;;;;;;;18.92;7.65;;;;;;;9.03;100.00;101065.91;4991890;28;20112;-71
2023/11/23 03:02:33;;;;;;;20.45;6.97;;;;;;;8.90;100.00;101054.06;4992590;28;20433;-69
2023/11/23 03:05:00;;;;;;;27.50;8.63;;;;;;;8.56;100.00;100987.91;4992585;28;20034;-68
2023/11/23 03:07:26;;;;;;;22.05;6.70;;;;;;;8.95;100.00;101062.91;4992085;28;20424;-69
2023/11/23 03:09:51;;;;;;;19.08;8.27;;;;;;;8.61;100.00;101006.16;4992308;28;20033;-68
2023/11/23 03:12:17;;;;;;;17.80;8.05;;;;;;;8.94;100.00;101057.69;4973971;28;20069;-69
2023/11/23 03:14:43;;;;;;;20.30;7.13;;;;;;;9.06;100.00;101076.38;4992091;28;20027;-69
2023/11/23 03:17:09;;;;;;;19.33;7.85;;;;;;;9.08;100.00;101061.88;4992439;28;20022;-68
2023/11/23 03:19:34;;;;;;;15.75;6.25;;;;;;;9.05;100.00;101067.75;4992155;28;20117;-68
2023/11/23 03:22:00;;;;;;;14.85;5.85;;;;;;;9.08;100.00;101061.88;4991774;28;20515;-69
2023/11/23 03:24:25;;;;;;;14.45;6.15;;;;;;;8.92;100.00;101034.41;4992465;28;20541;-68
2023/11/23 03:26:51;;;;;;;12.68;6.30;;;;;;;8.91;100.00;101040.41;4990849;28;20037;-70
2023/11/23 03:29:16;;;;;;;13.65;6.47;;;;;;;8.16;100.00;100932.59;4991829;28;20047;-69
2023/11/23 03:31:42;;;;;;;20.77;7.57;;;;;;;8.97;100.00;101075.88;4992072;28;20036;-69
2023/11/23 03:34:07;;;;;;;24.73;7.82;;;;;;;8.88;100.00;101063.38;4979226;28;20058;-69
2023/11/23 03:36:32;;;;;;;26.20;9.05;;;;;;;8.96;100.00;101086.97;4992505;28;20069;-69
2023/11/23 03:38:58;;;;;;;26.25;11.38;;;;;;;8.94;100.00;101092.03;4992130;28;20034;-68
2023/11/23 03:41:24;;;;;;;29.45;10.52;;;;;;;8.96;100.00;101094.69;4990973;28;20030;-69
2023/11/23 03:43:50;;;;;;;35.10;11.25;;;;;;;8.94;100.00;101091.16;4988988;28;20050;-68
2023/11/23 03:46:16;;;;;;;28.25;10.70;;;;;;;8.56;100.00;101040.28;4991791;28;20057;-68
2023/11/23 03:48:41;;;;;;;27.40;10.80;;;;;;;8.84;100.00;101092.38;4991564;28;20424;-69
2023/11/23 03:51:11;;;;;;;29.08;10.52;;;;;;;8.87;100.00;101088.28;4990734;28;20065;-69
2023/11/23 03:53:36;;;;;;;;;;;;;;;8.92;100.00;101100.50;4992119;28;20432;-69
2023/11/23 03:56:01;;;;;;;13.68;6.88;;;;;;;8.82;100.00;101092.28;4991549;28;19906;-69
2023/11/23 03:58:27;;;;;;;19.20;7.68;;;;;;;8.73;100.00;101096.91;4990938;28;20026;-68
2023/11/23 04:00:53;;;;;;;23.48;10.75;;;;;;;8.42;100.00;101061.75;4991640;28;20033;-69
2023/11/23 04:03:19;;;;;;;21.77;7.75;;;;;;;8.53;100.00;101091.56;4991012;28;20034;-69
2023/11/23 04:05:44;;;;;;;12.57;7.03;;;;;;;7.57;100.00;100934.50;5021941;28;20061;-71
2023/11/23 04:08:10;;;;;;;12.55;6.20;;;;;;;8.47;100.00;101091.22;4991319;28;20038;-68
2023/11/23 04:10:35;;;;;;;13.38;6.78;;;;;;;8.34;100.00;101073.31;4991349;28;20400;-68
2023/11/23 04:13:01;;;;;;;16.92;7.30;;;;;;;8.43;100.00;101094.41;4991054;28;20033;-69
2023/11/23 04:15:28;;;;;;;16.33;7.20;;;;;;;8.26;100.00;101073.75;4991621;28;20030;-67
2023/11/23 04:17:53;;;;;;;11.00;6.50;;;;;;;7.97;100.00;101041.25;4991172;28;20030;-69
2023/11/23 04:20:19;;;;;;;10.73;6.38;;;;;;;8.33;100.00;101110.13;4991296;28;20069;-69
2023/11/23 04:22:45;;;;;;;10.13;6.25;;;;;;;8.13;100.00;101080.72;4989665;28;20038;-69
2023/11/23 04:25:10;;;;;;;10.35;5.90;;;;;;;8.29;100.00;101108.16;4990932;28;20412;-69
2023/11/23 04:27:36;;;;;;;11.95;5.97;;;;;;;8.25;100.00;101097.72;4990610;28;20040;-69
2023/11/23 04:30:01;;;;;;;8.85;6.25;;;;;;;8.35;100.00;101116.22;4990144;28;20026;-69
2023/11/23 04:32:27;;;;;;;11.77;6.45;;;;;;;8.17;100.00;101100.66;4989771;28;20029;-69
2023/11/23 04:34:52;;;;;;;11.98;5.75;;;;;;;8.18;100.00;101126.44;4990699;28;20491;-68
2023/11/23 04:37:18;;;;;;;13.43;6.20;;;;;;;8.18;100.00;101112.72;4991151;28;20446;-68
2023/11/23 04:39:43;;;;;;;9.38;6.07;;;;;;;8.11;100.00;101116.59;4987556;28;20054;-67
2023/11/23 04:42:09;;;;;;;12.18;6.57;;;;;;;8.16;100.00;101132.31;4979602;28;20034;-69
2023/11/23 04:44:34;;;;;;;11.07;6.28;;;;;;;7.52;100.00;101036.13;4990490;28;20142;-69
2023/11/23 04:47:00;;;;;;;10.10;6.55;;;;;;;8.07;100.00;101128.44;4987599;28;20481;-68
2023/11/23 04:49:25;;;;;;;10.30;6.53;;;;;;;8.01;100.00;101116.88;5001290;28;20080;-71
2023/11/23 04:51:51;;;;;;;11.13;6.80;;;;;;;8.12;100.00;101128.66;5021194;28;20118;-69
2023/11/23 04:54:17;;;;;;;11.10;6.22;;;;;;;7.86;100.00;101079.22;4990151;28;20034;-69
2023/11/23 04:56:42;;;;;;;10.38;6.60;;;;;;;8.09;100.00;101120.78;4989879;28;20459;-69
2023/11/23 04:59:08;;;;;;;11.07;6.57;;;;;;;8.05;100.00;101123.97;4990922;28;20064;-73
2023/11/23 05:01:33;;;;;;;9.70;5.90;;;;;;;8.12;100.00;101146.69;4990184;28;20531;-68
2023/11/23 05:03:59;;;;;;;10.25;6.25;;;;;;;8.09;100.00;101136.22;4990627;28;20404;-68
2023/11/23 05:06:25;;;;;;;11.10;6.07;;;;;;;8.16;100.00;101151.22;4990599;28;20038;-69
2023/11/23 05:08:51;;;;;;;10.93;6.13;;;;;;;8.16;100.00;101140.94;4990406;28;20093;-68
2023/11/23 05:11:16;;;;;;;10.32;6.13;;;;;;;8.18;100.00;101134.16;4989857;28;20038;-69
2023/11/23 05:13:41;;;;;;;10.73;5.90;;;;;;;8.22;100.00;101143.84;4990223;28;20035;-69
2023/11/23 05:16:07;;;;;;;12.23;6.47;;;;;;;8.08;100.00;101131.88;4989105;28;20470;-71
2023/11/23 05:18:33;;;;;;;10.45;6.90;;;;;;;8.23;100.00;101149.88;4990324;28;20030;-68
2023/11/23 05:20:58;;;;;;;11.88;7.22;;;;;;;7.92;100.00;101115.56;5005340;28;20521;-67
2023/11/23 05:23:24;;;;;;;13.85;6.13;;;;;;;8.21;100.00;101164.31;4990094;28;20497;-69
2023/11/23 05:25:50;;;;;;;9.30;5.55;;;;;;;8.06;100.00;101147.22;4989733;28;20481;-70
2023/11/23 05:28:16;;;;;;;9.98;5.82;;;;;;;8.13;100.00;101171.59;5002989;28;20043;-69
2023/11/23 05:30:42;;;;;;;12.90;6.53;;;;;;;8.22;100.00;101176.38;5017239;28;20497;-69
2023/11/23 05:33:08;;;;;;;12.52;6.18;;;;;;;8.28;100.00;101165.59;4990055;28;20042;-69
2023/11/23 05:35:34;;;;;;;18.95;7.25;;;;;;;7.89;100.00;101101.66;4989968;28;20026;-69
2023/11/23 05:37:59;;;;;;;23.27;8.63;;;;;;;8.33;100.00;101170.16;4990645;28;20036;-69
2023/11/23 05:40:24;;;;;;;21.25;7.00;;;;;;;8.42;100.00;101180.09;4971952;28;20508;-69
2023/11/23 05:42:50;;;;;;;15.90;7.40;;;;;;;8.46;100.00;101192.41;4992815;28;20081;-69
2023/11/23 05:45:16;;;;;;;12.15;5.55;;;;;;;8.28;100.00;101175.88;4994420;28;20026;-69
2023/11/23 05:47:42;;;;;;;8.50;5.95;;;;;;;8.22;100.00;101160.97;4993868;28;20033;-68
2023/11/23 05:50:08;;;;;;;14.07;7.35;;;;;;;7.91;100.00;101116.38;4993915;28;20062;-69
2023/11/23 05:52:34;;;;;;;10.32;6.32;;;;;;;8.04;100.00;101146.25;4993585;28;20065;-68
2023/11/23 05:54:59;;;;;;;13.70;5.93;;;;;;;8.34;100.00;101197.69;4993885;28;20073;-69
2023/11/23 05:57:25;;;;;;;12.93;6.75;;;;;;;8.35;100.00;101208.84;4991373;28;20034;-71
2023/11/23 05:59:51;;;;;;;13.93;6.60;;;;;;;8.33;100.00;101213.91;4983952;28;20065;-69
2023/11/23 06:02:18;;;;;;;12.32;6.90;;;;;;;8.33;100.00;101206.19;4993798;28;20045;-72
2023/11/23 06:04:47;;;;;;;11.48;6.07;;;;;;;8.41;100.00;101222.97;4993299;28;20030;-70
2023/11/23 06:07:13;;;;;;;9.57;5.95;;;;;;;8.39;100.00;101229.69;4993741;28;20113;-69
2023/11/23 06:09:39;;;;;;;11.65;6.85;;;;;;;8.47;100.00;101232.75;4993396;28;20073;-69
2023/11/23 06:12:07;;;;;;;13.90;6.20;;;;;;;8.49;100.00;101227.72;4993325;28;20065;-72
2023/11/23 06:14:32;;;;;;;17.13;7.43;;;;;;;7.90;100.00;101124.88;4990514;28;20528;-69
2023/11/23 06:16:58;;;;;;;12.63;6.75;;;;;;;8.08;100.00;101142.16;4990563;28;20038;-70
2023/11/23 06:19:26;;;;;;;16.83;7.82;;;;;;;8.40;100.00;101192.00;4990625;28;20069;-69
2023/11/23 06:21:51;;;;;;;14.95;6.43;;;;;;;8.56;100.00;101220.44;4990999;28;20196;-69
2023/11/23 06:24:17;;;;;;;19.35;8.40;;;;;;;8.57;100.00;101229.03;4990758;28;20125;-69
2023/11/23 06:26:42;;;;;;;16.50;6.93;;;;;;;8.65;100.00;101226.88;4990806;28;20634;-69
2023/11/23 06:29:08;;;;;;;13.63;6.82;;;;;;;8.37;100.00;101173.81;4990690;28;20043;-70
2023/11/23 06:31:34;;;;;;;14.63;7.05;;;;;;;8.73;100.00;101223.97;4990823;28;20058;-70
2023/11/23 06:34:00;;;;;;;20.17;7.90;;;;;;;8.84;100.00;101221.97;4973899;28;20208;-69
2023/11/23 06:36:25;;;;;;;17.85;7.22;;;;;;;8.73;100.00;101208.53;4990648;28;20073;-71
2023/11/23 06:38:51;;;;;;;12.90;6.22;;;;;;;8.87;100.00;101222.16;4988280;28;20034;-74
2023/11/23 06:41:21;;;;;;;20.42;7.78;;;;;;;8.89;100.00;101220.53;4968745;28;20039;-71
2023/11/23 06:43:48;;;;;;;19.85;7.53;;;;;;;8.82;100.00;101208.16;4970925;28;20122;-71
2023/11/23 06:46:15;;;;;;;20.95;6.85;;;;;;;8.93;100.00;101224.19;4961540;28;20085;-69
2023/11/23 06:48:40;;;;;;;19.23;9.00;;;;;;;8.60;100.00;101156.25;4981113;28;20569;-73
2023/11/23 06:51:06;;;;;;;17.52;6.40;;;;;;;8.84;100.00;101188.50;4985309;28;20038;-68
2023/11/23 06:53:32;;;;;;;15.88;6.85;;;;;;;9.04;100.00;101214.47;4981185;28;20126;-69
2023/11/23 06:56:02;;;;;;;20.02;7.22;;;;;;;9.09;100.00;101214.75;4985507;28;20169;-72
2023/11/23 06:58:28;;;;;;;12.57;6.32;;;;;;;9.13;100.00;101209.81;4983113;28;20058;-71
2023/11/23 07:00:53;;;;;;;15.10;7.30;;;;;;;9.03;100.00;101192.09;4985504;28;20164;-70
2023/11/23 07:03:21;;;;;;;8.73;5.15;;;;;;;9.17;100.00;101211.78;4985507;28;20058;-69
2023/11/23 07:05:47;;;;;;;9.25;5.15;;;;;;;8.71;100.00;101137.13;4984319;28;20607;-68
2023/11/23 07:08:12;;;;;;;8.80;5.03;;;;;;;9.20;100.00;101217.09;4988296;28;20034;-70
2023/11/23 07:10:41;;;;;;;7.32;4.85;;;;;;;8.88;100.00;101176.69;4986626;28;20034;-69
2023/11/23 07:13:06;;;;;;;7.43;4.47;;;;;;;9.18;100.00;101233.25;4990268;28;20072;-70
2023/11/23 07:15:33;;;;;;;11.88;4.68;;;;;;;8.83;100.00;101181.56;4992962;28;20069;-71
2023/11/23 07:17:59;;;;;;;7.90;4.38;;;;;;;9.16;100.00;101240.91;4990409;28;20458;-71
2023/11/23 07:20:25;;;;;;;15.55;5.13;;;;;;;8.70;100.00;101155.97;4992828;28;20401;-71
2023/11/23 07:22:52;;;;;;;19.30;6.03;;;;;;;9.10;100.00;101238.00;4992905;28;20417;-70
2023/11/23 07:25:18;;;;;;;12.63;5.38;;;;;;;8.92;100.00;101204.38;4992951;28;20038;-71
2023/11/23 07:27:44;;;;;;;13.05;5.63;;;;;;;9.08;100.00;101234.44;4993169;28;20046;-70
2023/11/23 07:30:10;;;;;;;21.23;6.22;;;;;;;8.79;100.00;101181.34;4985240;28;20035;-71
2023/11/23 07:32:36;;;;;;;13.75;5.90;;;;;;;8.62;100.00;101162.38;4972860;28;20500;-71
2023/11/23 07:35:03;;;;;;;15.85;5.68;;;;;;;9.02;100.00;101236.69;4972859;28;20041;-69
2023/11/23 07:37:29;;;;;;;14.60;6.18;;;;;;;9.09;100.00;101250.81;4973329;28;20030;-69
2023/11/23 07:39:55;;;;;;;17.38;6.07;;;;;;;9.13;100.00;101255.31;4973141;28;20049;-69
2023/11/23 07:42:21;;;;;;;18.60;6.78;;;;;;;9.04;100.00;101259.13;4972984;28;20037;-69
2023/11/23 07:44:46;;;;;;;18.13;6.88;;;;;;;9.06;100.00;101252.41;4973004;28;20023;-69
2023/11/23 07:47:14;;;;;;;11.30;5.07;;;;;;;9.03;100.00;101251.34;4973059;28;20027;-69
2023/11/23 07:49:40;;;;;;;10.55;5.47;;;;;;;8.97;100.00;101251.00;4972643;28;20047;-69
2023/11/23 07:52:06;;;;;;;17.98;6.57;;;;;;;8.99;100.00;101249.41;4973072;28;20121;-72
2023/11/23 07:54:32;;;;;;;15.57;6.07;;;;;;;8.97;100.00;101246.75;4972939;28;20121;-69
2023/11/23 07:56:57;;;;;;;10.48;5.70;;;;;;;8.88;100.00;101236.81;4972944;28;20413;-69
2023/11/23 07:59:23;;;;;;;12.77;5.63;;;;;;;8.90;100.00;101253.22;4972851;28;20034;-68
2023/11/23 08:01:48;;;;;;;17.52;6.10;;;;;;;9.01;100.00;101273.53;4972712;28;20033;-68
2023/11/23 08:04:14;;;;;;;11.88;5.70;;;;;;;9.04;100.00;101274.59;4972474;28;20035;-69
2023/11/23 08:06:40;;;;;;;13.85;6.65;;;;;;;8.98;100.00;101261.38;4971961;28;20493;-69
2023/11/23 08:09:05;;;;;;;10.77;5.93;;;;;;;8.99;100.00;101270.88;4972704;28;20035;-69
2023/11/23 08:11:31;;;;;;;10.52;5.43;;;;;;;8.94;100.00;101279.16;4972674;28;20548;-69
2023/11/23 08:13:57;;;;;;;9.88;5.22;;;;;;;8.76;100.00;101284.13;4972568;28;20477;-69
2023/11/23 08:16:23;;;;;;;9.73;5.65;;;;;;;8.74;100.00;101278.91;4972530;28;20047;-69
2023/11/23 08:18:49;;;;;;;11.85;6.03;;;;;;;8.66;100.00;101281.03;4972277;28;20030;-68
2023/11/23 08:21:14;;;;;;;10.27;5.70;;;;;;;8.61;100.00;101279.00;4972465;28;20580;-68
2023/11/23 08:23:41;;;;;;;16.73;7.05;;;;;;;8.58;100.00;101282.28;4972326;28;20038;-69
2023/11/23 08:26:06;;;;;;;15.07;7.47;;;;;;;8.61;100.00;101285.03;4972493;28;20031;-69
2023/11/23 08:28:32;;;;;;;16.65;6.60;;;;;;;8.64;100.00;101292.06;4972379;28;20033;-69
2023/11/23 08:30:57;;;;;;;17.20;7.55;;;;;;;8.61;100.00;101282.47;4972236;28;20027;-68
2023/11/23 08:33:23;;;;;;;12.90;6.80;;;;;;;8.71;100.00;101279.63;4972074;28;20034;-68
2023/11/23 08:35:49;;;;;;;17.15;6.72;;;;;;;8.76;100.00;101287.63;4972377;28;20564;-69
2023/11/23 08:38:14;;;;;;;16.05;6.72;;;;;;;8.73;100.00;101283.19;4972155;28;20047;-70
2023/11/23 08:41:00;;;;;;;18.70;7.03;;;;;;;8.61;100.00;101253.25;4972226;28;20050;-72
2023/11/23 08:43:25;;;;;;;15.88;7.10;;;;;;;8.75;100.00;101283.25;4972032;28;20031;-68
2023/11/23 08:45:51;;;;;;;19.25;7.20;;;;;;;8.78;100.00;101295.41;4972226;28;20042;-68
2023/11/23 08:48:16;;;;;;;18.77;8.75;;;;;;;8.80;100.00;101289.56;4972207;28;20034;-69
2023/11/23 08:50:42;;;;;;;11.15;6.38;;;;;;;8.73;100.00;101284.84;4972094;28;20105;-69
2023/11/23 08:53:07;;;;;;;12.60;6.80;;;;;;;8.65;100.00;101271.53;4972117;28;20057;-71
2023/11/23 08:55:33;;;;;;;23.60;7.60;;;;;;;8.53;100.00;101256.25;4971967;28;20098;-69
2023/11/23 08:57:59;;;;;;;19.13;8.02;;;;;;;8.20;100.00;101188.25;4972011;28;20035;-68
2023/11/23 09:00:25;;;;;;;18.90;8.45;;;;;;;8.74;100.00;101277.22;4971760;28;20494;-69
2023/11/23 09:02:53;;;;;;;14.85;7.72;;;;;;;8.77;100.00;101257.59;4971987;28;20046;-73
2023/11/23 09:05:18;;;;;;;24.25;7.95;;;;;;;8.71;100.00;101263.25;4972024;28;20128;-68
2023/11/23 09:07:44;;;;;;;25.02;7.68;;;;;;;8.80;100.00;101255.19;4971954;28;20494;-69
2023/11/23 09:10:09;;;;;;;15.63;6.70;;;;;;;8.34;100.00;101171.06;4971903;28;20468;-68
2023/11/23 09:12:36;;;;;;;18.63;7.65;;;;;;;8.81;100.00;101254.38;4971875;28;20614;-68
2023/11/23 09:15:04;;;;;;;18.73;8.02;;;;;;;8.84;100.00;101244.28;4971645;28;20357;-69
2023/11/23 09:17:33;;;;;;;10.13;6.13;;;;;;;8.87;100.00;101247.00;4974168;28;20031;-69
2023/11/23 09:19:59;;;;;;;10.98;5.65;;;;;;;8.32;100.00;101146.94;4975661;28;20093;-69
2023/11/23 09:22:24;;;;;;;9.35;5.28;;;;;;;8.87;100.00;101237.63;4975676;28;20031;-69
2023/11/23 09:24:53;;;;;;;26.75;18.30;;;;;;;8.83;100.00;101234.78;4975538;28;20097;-69
2023/11/23 09:27:18;;;;;;;14.10;7.82;;;;;;;8.79;100.00;101225.97;4975409;28;20038;-69
2023/11/23 09:29:44;;;;;;;12.70;6.18;;;;;;;8.93;100.00;101234.47;4975455;28;20030;-69
2023/11/23 09:32:10;;;;;;;12.77;6.07;;;;;;;8.95;100.00;101237.13;4975639;28;20033;-69
2023/11/23 09:34:36;;;;;;;15.13;5.68;;;;;;;8.50;100.00;101148.03;4976349;28;20023;-72
2023/11/23 09:37:01;;;;;;;10.35;6.07;;;;;;;8.96;100.00;101226.94;4994786;28;20099;-68
2023/11/23 09:39:27;;;;;;;11.30;6.13;;;;;;;9.02;100.00;101229.84;4994900;28;20403;-68
2023/11/23 09:41:57;;;;;;;9.18;5.50;;;;;;;8.90;100.00;101211.16;4994670;28;20076;-68
2023/11/23 09:44:25;;;;;;;;;;;;;;;9.04;100.00;101229.94;4995213;28;20061;-69
2023/11/23 09:46:52;;;;;;;10.20;5.75;;;;;;;9.11;100.00;101238.88;4986297;28;19918;-70
2023/11/23 09:49:19;;;;;;;9.07;5.00;;;;;;;9.13;100.00;101221.81;4994565;28;20055;-69
2023/11/23 09:51:47;;;;;;;6.18;4.07;;;;;;;8.58;100.00;101131.31;4992371;28;20089;-71
2023/11/23 09:54:18;;;;;;;7.88;4.80;;;;;;;9.09;100.00;101213.03;4989465;28;20030;-70
2023/11/23 09:56:43;;;;;;;12.50;4.63;;;;;;;9.09;100.00;101217.31;4986160;28;20685;-69
2023/11/23 09:59:09;;;;;;;15.98;5.60;;;;;;;8.99;100.00;101200.47;4981205;28;20057;-69
2023/11/23 10:01:41;;;;;;;14.52;5.95;;;;;;;9.07;100.00;101212.06;4993014;28;20057;-70
2023/11/23 10:04:06;;;;;;;13.32;5.05;;;;;;;8.29;100.00;101059.28;4984838;28;20145;-70
2023/11/23 10:06:32;;;;;;;7.22;4.10;;;;;;;8.95;100.00;101165.94;4991834;28;20113;-69
2023/11/23 10:08:58;;;;;;;11.65;4.93;;;;;;;9.07;100.00;101179.47;4969788;28;20042;-71
2023/11/23 10:11:26;;;;;;;11.13;4.90;;;;;;;9.12;100.00;101181.41;4991051;28;20037;-70
2023/11/23 10:13:52;;;;;;;10.85;4.88;;;;;;;9.06;100.00;101176.81;4993383;28;20445;-68
2023/11/23 10:16:17;;;;;;;10.60;4.22;;;;;;;8.86;100.00;101132.84;4985338;28;20026;-68
2023/11/23 10:18:43;;;;;;;6.00;3.85;;;;;;;9.16;100.00;101194.53;4992041;28;20035;-68
2023/11/23 10:21:11;;;;;;;13.32;4.53;;;;;;;8.89;100.00;101135.56;4994090;28;20436;-68
2023/11/23 10:23:41;;;;;;;12.73;4.47;;;;;;;9.20;100.00;101170.72;4993772;28;20044;-69
2023/11/23 10:26:10;;;;;;;9.93;3.55;;;;;;;9.22;100.00;101161.38;4994151;28;20077;-71
2023/11/23 10:28:41;;;;;;;8.73;4.45;;;;;;;9.31;100.00;101162.66;4993006;28;20038;-68
2023/11/23 10:31:07;;;;;;;7.35;4.18;;;;;;;9.36;100.00;101146.66;4993936;28;20070;-70
2023/11/23 10:33:37;;;;;;;7.90;3.75;;;;;;;9.36;100.00;101145.78;4993874;28;20042;-67
2023/11/23 10:36:04;;;;;;;8.25;4.38;;;;;;;9.30;100.00;101122.25;4993744;28;20037;-68
2023/11/23 10:38:37;;;;;;;8.00;3.83;;;;;;;9.42;100.00;101135.78;4993475;28;20030;-68
2023/11/23 10:41:03;;;;;;;10.85;4.18;;;;;;;9.45;100.00;101125.63;4993587;28;20480;-69
2023/11/23 10:43:29;;;;;;;6.40;3.45;;;;;;;9.52;100.00;101125.16;4993667;28;20105;-68
2023/11/23 10:45:57;;;;;;;5.32;3.50;;;;;;;9.50;100.00;101129.31;4993540;28;20145;-68
2023/11/23 10:48:24;;;;;;;5.50;3.30;;;;;;;9.49;100.00;101132.69;4993408;28;20401;-68
2023/11/23 10:50:50;;;;;;;6.60;3.42;;;;;;;9.49;100.00;101132.69;4993382;28;20037;-68
2023/11/23 10:53:15;;;;;;;4.82;3.10;;;;;;;9.50;100.00;101134.47;4993371;28;20023;-69
2023/11/23 10:55:41;;;;;;;5.45;3.42;;;;;;;9.55;100.00;101138.19;4993603;28;20077;-68
2023/11/23 10:58:12;;;;;;;7.40;3.50;;;;;;;9.48;100.00;101114.59;4993599;28;20080;-69
2023/11/23 11:00:40;;;;;;;6.05;3.22;;;;;;;9.60;100.00;101129.81;4993340;28;20027;-69
2023/11/23 11:03:08;;;;;;;7.30;3.42;;;;;;;9.14;100.00;101043.28;4993196;28;20044;-70
2023/11/23 11:05:45;;;;;;;5.25;3.28;;;;;;;9.65;100.00;101131.81;4993186;28;20034;-68
2023/11/23 11:08:17;;;;;;;6.20;3.22;;;;;;;9.62;100.00;101107.56;4993281;28;20026;-69
2023/11/23 11:10:53;;;;;;;5.00;3.20;;;;;;;9.17;100.00;101038.28;4993176;28;20456;-69
2023/11/23 11:13:22;;;;;;;5.22;3.30;;;;;;;9.55;100.00;101107.25;4993065;28;20061;-68
2023/11/23 11:15:52;;;;;;;7.07;3.60;;;;;;;9.17;100.00;101040.84;4992949;28;20062;-69
2023/11/23 11:18:22;;;;;;;6.43;3.47;;;;;;;9.69;100.00;101122.53;4993057;28;20044;-69